createdAt,value
2022-10-19T00:00:42.947Z,81.98
2022-10-19T00:01:42.957Z,81.93
2022-10-19T00:02:42.964Z,81.96
2022-10-19T00:03:42.911Z,81.96
2022-10-19T00:04:42.969Z,81.77
2022-10-19T00:05:42.853Z,81.66
2022-10-19T00:06:42.958Z,81.68
2022-10-19T00:07:42.826Z,81.69
2022-10-19T00:08:42.999Z,81.57
2022-10-19T00:09:42.802Z,81.54
2022-10-19T00:10:42.867Z,81.48
2022-10-19T00:11:42.785Z,81.54
2022-10-19T00:12:42.876Z,81.66
2022-10-19T00:13:42.748Z,81.71
2022-10-19T00:14:42.838Z,81.70
2022-10-19T00:15:42.729Z,81.69
2022-10-19T00:16:43.898Z,81.57
2022-10-19T00:17:42.687Z,81.62
2022-10-19T00:18:44.767Z,81.52
2022-10-19T00:19:42.659Z,81.39
2022-10-19T00:20:42.678Z,81.46
2022-10-19T00:21:42.681Z,81.47
2022-10-19T00:22:42.739Z,81.46
2022-10-19T00:23:42.609Z,81.31
2022-10-19T00:24:42.709Z,81.26
2022-10-19T00:25:42.590Z,81.31
2022-10-19T00:26:42.621Z,81.40
2022-10-19T00:27:42.557Z,81.34
2022-10-19T00:28:42.771Z,81.41
2022-10-19T00:29:42.537Z,81.40
2022-10-19T00:30:42.591Z,81.32
2022-10-19T00:31:42.499Z,81.19
2022-10-19T00:32:42.568Z,81.25
2022-10-19T00:33:42.468Z,81.23
2022-10-19T00:34:42.529Z,81.31
2022-10-19T00:35:42.448Z,81.32
2022-10-19T00:36:43.599Z,81.34
2022-10-19T00:37:42.420Z,81.22
2022-10-19T00:38:42.518Z,81.19
2022-10-19T00:39:42.429Z,81.16
2022-10-19T00:40:42.499Z,81.15
2022-10-19T00:41:42.369Z,81.24
2022-10-19T00:42:42.489Z,81.27
2022-10-19T00:43:42.361Z,81.28
2022-10-19T00:44:42.420Z,81.35
2022-10-19T00:45:42.317Z,81.43
2022-10-19T00:46:42.570Z,81.17
2022-10-19T00:47:42.289Z,81.07
2022-10-19T00:48:42.406Z,81.04
2022-10-19T00:49:42.260Z,81.01
2022-10-19T00:50:43.349Z,80.99
2022-10-19T00:51:42.239Z,80.96
2022-10-19T00:52:42.427Z,80.95
2022-10-19T00:53:42.209Z,80.91
2022-10-19T00:54:42.320Z,80.82
2022-10-19T00:55:42.179Z,80.88
2022-10-19T00:56:43.359Z,80.90
2022-10-19T00:57:42.206Z,80.98
2022-10-19T00:58:42.219Z,80.99
2022-10-19T00:59:42.129Z,80.93
2022-10-19T01:00:42.231Z,80.97
2022-10-19T01:01:42.105Z,81.09
2022-10-19T01:02:42.261Z,81.16
2022-10-19T01:03:42.073Z,81.02
2022-10-19T01:04:42.322Z,81.03
2022-10-19T01:05:42.049Z,80.98
2022-10-19T01:06:42.159Z,80.94
2022-10-19T01:07:42.021Z,80.88
2022-10-19T01:08:42.142Z,80.88
2022-10-19T01:09:41.990Z,80.81
2022-10-19T01:10:44.181Z,80.88
2022-10-19T01:11:41.991Z,80.70
2022-10-19T01:12:42.113Z,80.40
2022-10-19T01:13:41.940Z,80.39
2022-10-19T01:14:42.051Z,80.26
2022-10-19T01:15:41.956Z,80.11
2022-10-19T01:16:42.042Z,79.91
2022-10-19T01:17:41.892Z,79.72
2022-10-19T01:18:42.941Z,79.76
2022-10-19T01:19:41.861Z,79.61
2022-10-19T01:20:41.892Z,79.58
2022-10-19T01:21:42.144Z,79.27
2022-10-19T01:22:42.043Z,79.23
2022-10-19T01:23:41.792Z,79.01
2022-10-19T01:24:41.881Z,78.95
2022-10-19T01:25:41.780Z,78.99
2022-10-19T01:26:41.905Z,78.84
2022-10-19T01:27:41.753Z,79.14
2022-10-19T01:28:41.902Z,78.80
2022-10-19T01:29:41.723Z,78.76
2022-10-19T01:31:51.618Z,78.60
2022-10-19T01:32:51.511Z,78.60
2022-10-19T01:33:51.652Z,78.63
2022-10-19T01:34:51.502Z,78.50
2022-10-19T01:35:53.687Z,78.74
2022-10-19T01:36:51.458Z,78.67
2022-10-19T01:37:51.627Z,78.72
2022-10-19T01:38:51.427Z,78.72
2022-10-19T01:39:51.506Z,78.73
2022-10-19T01:40:51.408Z,78.63
2022-10-19T01:41:53.494Z,78.65
2022-10-19T01:42:51.422Z,78.90
2022-10-19T01:44:12.507Z,78.76
2022-10-19T01:44:51.370Z,78.70
2022-10-19T01:45:51.518Z,78.61
2022-10-19T01:46:51.315Z,78.42
2022-10-19T01:47:51.508Z,78.28
2022-10-19T01:48:51.289Z,78.18
2022-10-19T01:49:51.337Z,78.24
2022-10-19T01:50:51.263Z,78.04
2022-10-19T01:51:51.463Z,78.12
2022-10-19T01:52:51.237Z,78.12
2022-10-19T01:53:51.308Z,78.07
2022-10-19T01:54:51.208Z,77.78
2022-10-19T01:55:51.350Z,78.07
2022-10-19T01:56:51.196Z,78.21
2022-10-19T01:57:51.228Z,77.86
2022-10-19T01:58:51.156Z,77.93
2022-10-19T01:59:51.212Z,77.84
2022-10-19T02:00:51.311Z,77.74
2022-10-19T02:01:51.252Z,77.87
2022-10-19T02:02:51.097Z,78.04
2022-10-19T02:03:52.268Z,78.08
2022-10-19T02:04:51.086Z,78.25
2022-10-19T02:05:51.219Z,78.26
2022-10-19T02:06:51.040Z,78.28
2022-10-19T02:07:51.156Z,78.29
2022-10-19T02:08:51.019Z,78.15
2022-10-19T02:09:51.190Z,78.16
2022-10-19T02:10:50.996Z,77.96
2022-10-19T02:11:53.361Z,78.09
2022-10-19T02:12:51.960Z,77.98
2022-10-19T02:13:51.058Z,78.14
2022-10-19T02:14:50.942Z,78.03
2022-10-19T02:15:51.151Z,78.02
2022-10-19T02:16:50.909Z,77.98
2022-10-19T02:17:51.029Z,78.13
2022-10-19T02:18:50.882Z,78.01
2022-10-19T02:19:50.971Z,77.58
2022-10-19T02:20:50.850Z,77.42
2022-10-19T02:21:51.981Z,77.25
2022-10-19T02:22:50.836Z,77.09
2022-10-19T02:23:53.383Z,76.97
2022-10-19T02:24:50.803Z,77.20
2022-10-19T02:25:52.862Z,77.18
2022-10-19T02:26:50.774Z,77.18
2022-10-19T02:27:50.865Z,77.08
2022-10-19T02:28:50.758Z,77.09
2022-10-19T02:29:50.849Z,77.26
2022-10-19T02:30:50.711Z,77.10
2022-10-19T02:31:50.880Z,77.20
2022-10-19T02:32:50.680Z,77.28
2022-10-19T02:33:54.041Z,77.25
2022-10-19T02:34:50.653Z,77.40
2022-10-19T02:35:50.748Z,77.33
2022-10-19T02:36:50.623Z,77.22
2022-10-19T02:37:50.681Z,77.42
2022-10-19T02:38:50.601Z,77.47
2022-10-19T02:39:51.692Z,77.50
2022-10-19T02:40:50.571Z,77.59
2022-10-19T02:41:50.761Z,77.74
2022-10-19T02:42:50.544Z,77.71
2022-10-19T02:43:50.693Z,77.88
2022-10-19T02:44:50.522Z,77.53
2022-10-19T02:45:50.655Z,77.43
2022-10-19T02:46:50.502Z,77.61
2022-10-19T02:47:50.509Z,77.75
2022-10-19T02:48:50.463Z,77.93
2022-10-19T02:49:50.522Z,78.03
2022-10-19T02:50:50.432Z,77.84
2022-10-19T02:51:50.491Z,77.85
2022-10-19T02:52:50.412Z,77.99
2022-10-19T02:53:50.463Z,77.86
2022-10-19T02:54:50.381Z,78.09
2022-10-19T02:55:50.506Z,78.19
2022-10-19T02:56:50.367Z,78.15
2022-10-19T02:57:50.432Z,78.29
2022-10-19T02:58:50.377Z,78.30
2022-10-19T02:59:50.395Z,78.36
2022-10-19T03:00:50.321Z,78.42
2022-10-19T03:01:50.302Z,78.62
2022-10-19T03:02:50.274Z,78.82
2022-10-19T03:03:50.364Z,78.98
2022-10-19T03:04:50.246Z,79.07
2022-10-19T03:05:51.306Z,79.00
2022-10-19T03:06:50.214Z,79.06
2022-10-19T03:07:50.315Z,79.14
2022-10-19T03:08:50.195Z,79.20
2022-10-19T03:09:50.203Z,79.15
2022-10-19T03:10:50.163Z,79.11
2022-10-19T03:11:50.172Z,79.23
2022-10-19T03:12:50.144Z,79.17
2022-10-19T03:13:50.188Z,79.06
2022-10-19T03:14:50.111Z,79.08
2022-10-19T03:15:50.204Z,78.99
2022-10-19T03:16:50.074Z,79.10
2022-10-19T03:17:50.195Z,79.27
2022-10-19T03:18:50.053Z,79.41
2022-10-19T03:19:50.232Z,79.57
2022-10-19T03:20:50.029Z,79.63
2022-10-19T03:21:50.113Z,79.67
2022-10-19T03:22:50.057Z,79.68
2022-10-19T03:23:50.067Z,79.62
2022-10-19T03:24:49.974Z,79.54
2022-10-19T03:25:50.072Z,79.82
2022-10-19T03:26:49.946Z,79.57
2022-10-19T03:27:50.116Z,79.49
2022-10-19T03:28:49.948Z,79.47
2022-10-19T03:29:50.106Z,79.48
2022-10-19T03:30:49.899Z,79.42
2022-10-19T03:31:49.935Z,79.44
2022-10-19T03:32:49.866Z,79.32
2022-10-19T03:33:50.028Z,79.35
2022-10-19T03:34:49.844Z,79.23
2022-10-19T03:35:50.005Z,79.20
2022-10-19T03:36:49.814Z,79.24
2022-10-19T03:37:49.955Z,79.14
2022-10-19T03:38:49.790Z,79.17
2022-10-19T03:39:49.827Z,79.14
2022-10-19T03:40:49.766Z,79.18
2022-10-19T03:41:51.913Z,79.18
2022-10-19T03:42:49.922Z,78.94
2022-10-19T03:43:49.894Z,78.92
2022-10-19T03:44:49.717Z,78.96
2022-10-19T03:45:49.835Z,79.11
2022-10-19T03:46:49.683Z,79.06
2022-10-19T03:47:49.716Z,79.18
2022-10-19T03:48:49.652Z,79.12
2022-10-19T03:49:49.748Z,78.95
2022-10-19T03:50:49.624Z,78.94
2022-10-19T03:51:49.746Z,78.97
2022-10-19T03:52:49.696Z,78.88
2022-10-19T03:53:50.754Z,78.87
2022-10-19T03:54:49.789Z,78.75
2022-10-19T03:55:49.768Z,78.79
2022-10-19T03:56:49.557Z,78.52
2022-10-19T03:57:49.658Z,78.49
2022-10-19T03:58:49.517Z,78.64
2022-10-19T04:00:10.591Z,78.75
2022-10-19T04:00:49.527Z,78.89
2022-10-19T04:01:49.566Z,78.94
2022-10-19T04:02:49.468Z,79.00
2022-10-19T04:03:49.668Z,79.07
2022-10-19T04:04:49.446Z,79.12
2022-10-19T04:06:10.616Z,79.21
2022-10-19T04:06:49.421Z,79.06
2022-10-19T04:07:49.467Z,79.13
2022-10-19T04:08:49.388Z,79.22
2022-10-19T04:09:52.762Z,79.38
2022-10-19T04:10:49.367Z,79.36
2022-10-19T04:11:49.439Z,79.42
2022-10-19T04:12:53.650Z,79.33
2022-10-19T04:13:49.328Z,79.42
2022-10-19T04:14:57.798Z,79.56
2022-10-19T04:15:50.317Z,79.65
2022-10-19T04:16:49.378Z,79.75
2022-10-19T04:17:49.275Z,79.81
2022-10-19T04:19:10.329Z,79.89
2022-10-19T04:19:49.247Z,79.80
2022-10-19T04:20:49.348Z,79.94
2022-10-19T04:21:49.247Z,79.93
2022-10-19T04:22:50.308Z,79.83
2022-10-19T04:23:49.188Z,79.85
2022-10-19T04:24:49.330Z,80.09
2022-10-19T04:25:49.173Z,80.27
2022-10-19T04:26:49.262Z,80.38
2022-10-19T04:27:49.157Z,80.46
2022-10-19T04:28:49.247Z,80.20
2022-10-19T04:29:49.110Z,80.15
2022-10-19T04:30:49.238Z,79.92
2022-10-19T04:31:49.089Z,79.89
2022-10-19T04:33:10.199Z,80.08
2022-10-19T04:33:49.067Z,80.16
2022-10-19T04:34:50.219Z,80.37
2022-10-19T04:35:49.029Z,80.38
2022-10-19T04:36:49.130Z,80.49
2022-10-19T04:37:48.999Z,80.48
2022-10-19T04:38:49.119Z,80.44
2022-10-19T04:39:48.988Z,80.57
2022-10-19T04:40:49.078Z,80.67
2022-10-19T04:41:48.947Z,80.62
2022-10-19T04:42:48.992Z,80.51
2022-10-19T04:43:48.940Z,80.40
2022-10-19T04:44:49.199Z,80.57
2022-10-19T04:45:48.908Z,80.61
2022-10-19T04:46:49.009Z,80.65
2022-10-19T04:47:48.878Z,80.71
2022-10-19T04:48:50.072Z,80.82
2022-10-19T04:49:48.850Z,81.00
2022-10-19T04:50:48.907Z,81.16
2022-10-19T04:51:48.828Z,81.09
2022-10-19T04:52:48.872Z,81.30
2022-10-19T04:53:48.800Z,81.37
2022-10-19T04:54:48.880Z,81.44
2022-10-19T04:55:48.780Z,81.43
2022-10-19T04:56:48.857Z,81.40
2022-10-19T04:57:48.763Z,81.34
2022-10-19T04:58:48.821Z,81.60
2022-10-19T04:59:48.719Z,81.57
2022-10-19T05:00:48.889Z,81.28
2022-10-19T05:01:48.689Z,81.59
2022-10-19T05:02:48.789Z,81.74
2022-10-19T05:03:48.747Z,81.85
2022-10-19T05:04:48.751Z,81.97
2022-10-19T05:05:48.633Z,81.87
2022-10-19T05:06:49.689Z,81.69
2022-10-19T05:07:48.620Z,81.79
2022-10-19T05:08:48.748Z,81.59
2022-10-19T05:09:48.580Z,81.42
2022-10-19T05:10:48.699Z,81.40
2022-10-19T05:11:48.552Z,81.36
2022-10-19T05:12:48.670Z,81.31
2022-10-19T05:13:48.531Z,81.38
2022-10-19T05:14:48.722Z,81.27
2022-10-19T05:15:48.513Z,81.26
2022-10-19T05:16:48.641Z,81.52
2022-10-19T05:17:48.480Z,81.45
2022-10-19T05:18:48.574Z,81.39
2022-10-19T05:19:48.470Z,81.58
2022-10-19T05:20:49.591Z,81.64
2022-10-19T05:21:48.420Z,81.70
2022-10-19T05:22:48.540Z,81.78
2022-10-19T05:23:48.421Z,81.79
2022-10-19T05:24:48.580Z,81.59
2022-10-19T05:25:48.372Z,81.28
2022-10-19T05:26:48.461Z,81.33
2022-10-19T05:27:48.371Z,81.70
2022-10-19T05:28:49.522Z,81.87
2022-10-19T05:29:48.310Z,81.93
2022-10-19T05:30:49.139Z,81.72
2022-10-19T05:31:48.291Z,81.68
2022-10-19T05:32:48.473Z,81.94
2022-10-19T05:33:48.251Z,82.85
2022-10-19T05:34:48.351Z,82.83
2022-10-19T05:35:48.231Z,82.71
2022-10-19T05:36:50.388Z,82.44
2022-10-19T05:37:48.201Z,82.86
2022-10-19T05:38:48.391Z,82.78
2022-10-19T05:39:48.190Z,82.57
2022-10-19T05:40:52.901Z,82.80
2022-10-19T05:41:49.150Z,82.66
2022-10-19T05:42:48.312Z,82.58
2022-10-19T05:43:48.119Z,82.46
2022-10-19T05:44:48.182Z,82.36
2022-10-19T05:45:48.092Z,82.14
2022-10-19T05:46:48.172Z,82.06
2022-10-19T05:47:48.071Z,82.15
2022-10-19T05:48:48.210Z,82.23
2022-10-19T05:49:48.042Z,82.25
2022-10-19T05:50:48.201Z,82.42
2022-10-19T05:51:48.011Z,82.57
2022-10-19T05:52:50.272Z,82.46
2022-10-19T05:53:47.992Z,82.60
2022-10-19T05:54:48.017Z,82.61
2022-10-19T05:55:47.952Z,82.73
2022-10-19T05:56:48.091Z,82.93
2022-10-19T05:57:47.931Z,82.96
2022-10-19T05:58:48.081Z,82.68
2022-10-19T05:59:47.911Z,82.54
2022-10-19T06:00:48.021Z,82.31
2022-10-19T06:01:47.891Z,82.36
2022-10-19T06:02:48.941Z,82.01
2022-10-19T06:03:47.851Z,81.82
2022-10-19T06:04:47.991Z,81.78
2022-10-19T06:05:47.821Z,81.69
2022-10-19T06:06:47.931Z,81.44
2022-10-19T06:07:47.803Z,81.48
2022-10-19T06:08:51.191Z,81.44
2022-10-19T06:09:47.783Z,81.37
2022-10-19T06:10:47.913Z,81.28
2022-10-19T06:11:47.754Z,81.36
2022-10-19T06:12:48.852Z,81.46
2022-10-19T06:13:47.713Z,81.46
2022-10-19T06:14:48.845Z,81.55
2022-10-19T06:15:47.682Z,81.44
2022-10-19T06:16:47.793Z,81.44
2022-10-19T06:17:47.673Z,81.40
2022-10-19T06:18:47.846Z,81.35
2022-10-19T06:19:47.639Z,81.47
2022-10-19T06:20:49.932Z,81.54
2022-10-19T06:21:47.611Z,81.44
2022-10-19T06:22:47.701Z,81.58
2022-10-19T06:23:47.585Z,81.31
2022-10-19T06:24:48.671Z,81.17
2022-10-19T06:25:47.554Z,81.13
2022-10-19T06:26:47.732Z,80.94
2022-10-19T06:27:47.545Z,80.95
2022-10-19T06:28:47.726Z,80.93
2022-10-19T06:29:47.492Z,80.83
2022-10-19T06:30:47.678Z,80.78
2022-10-19T06:31:47.483Z,80.63
2022-10-19T06:32:47.684Z,80.69
2022-10-19T06:33:49.444Z,80.87
2022-10-19T06:34:47.522Z,80.61
2022-10-19T06:35:53.338Z,80.87
2022-10-19T06:36:47.403Z,80.92
2022-10-19T06:37:47.534Z,81.14
2022-10-19T06:38:47.410Z,80.96
2022-10-19T06:39:47.478Z,80.87
2022-10-19T06:40:47.353Z,80.67
2022-10-19T06:41:47.505Z,80.62
2022-10-19T06:42:47.324Z,80.57
2022-10-19T06:43:47.413Z,80.58
2022-10-19T06:44:47.323Z,80.45
2022-10-19T06:45:47.328Z,80.69
2022-10-19T06:46:47.303Z,80.93
2022-10-19T06:48:47.253Z,80.48
2022-10-19T06:49:48.371Z,80.76
2022-10-19T06:50:47.230Z,80.56
2022-10-19T06:51:47.307Z,80.62
2022-10-19T06:52:47.195Z,80.65
2022-10-19T06:53:49.717Z,80.51
2022-10-19T06:54:48.154Z,80.20
2022-10-19T06:55:47.193Z,80.10
2022-10-19T06:56:47.494Z,80.01
2022-10-19T06:57:47.215Z,79.85
2022-10-19T06:58:47.122Z,79.80
2022-10-19T06:59:50.117Z,79.74
2022-10-19T07:00:48.202Z,79.85
2022-10-19T07:01:47.172Z,79.81
2022-10-19T07:02:47.085Z,79.92
2022-10-19T07:04:08.193Z,80.03
2022-10-19T07:04:47.026Z,79.88
2022-10-19T07:05:47.067Z,79.91
2022-10-19T07:06:47.000Z,79.96
2022-10-19T07:07:47.123Z,79.78
2022-10-19T07:08:47.014Z,79.77
2022-10-19T07:09:46.993Z,79.69
2022-10-19T07:10:46.946Z,79.32
2022-10-19T07:11:47.008Z,79.43
2022-10-19T07:12:46.915Z,79.29
2022-10-19T07:13:46.984Z,79.55
2022-10-19T07:14:46.924Z,79.33
2022-10-19T07:15:47.042Z,79.31
2022-10-19T07:16:46.865Z,79.38
2022-10-19T07:17:46.953Z,79.11
2022-10-19T07:18:46.836Z,78.95
2022-10-19T07:19:46.952Z,79.04
2022-10-19T07:20:46.903Z,79.25
2022-10-19T07:21:46.882Z,78.84
2022-10-19T07:22:46.915Z,78.90
2022-10-19T07:23:46.896Z,79.05
2022-10-19T07:24:46.753Z,78.87
2022-10-19T07:25:46.903Z,78.57
2022-10-19T07:26:46.766Z,78.45
2022-10-19T07:27:46.891Z,78.43
2022-10-19T07:28:46.836Z,77.84
2022-10-19T07:29:46.726Z,77.81
2022-10-19T07:30:46.685Z,78.20
2022-10-19T07:31:46.792Z,77.82
2022-10-19T07:32:47.148Z,77.64
2022-10-19T07:33:46.724Z,77.73
2022-10-19T07:34:46.677Z,77.66
2022-10-19T07:35:46.665Z,77.56
2022-10-19T07:36:46.595Z,77.59
2022-10-19T07:37:47.318Z,77.33
2022-10-19T07:38:46.595Z,77.25
2022-10-19T07:39:46.656Z,77.51
2022-10-19T07:40:47.568Z,77.19
2022-10-19T07:41:46.615Z,77.28
2022-10-19T07:42:46.496Z,77.16
2022-10-19T07:43:46.526Z,77.14
2022-10-19T07:44:46.516Z,77.02
2022-10-19T07:45:46.557Z,77.04
2022-10-19T07:46:46.463Z,77.09
2022-10-19T07:47:46.564Z,77.44
2022-10-19T07:48:46.438Z,77.29
2022-10-19T07:49:46.537Z,77.40
2022-10-19T07:50:46.435Z,76.39
2022-10-19T07:51:46.565Z,76.03
2022-10-19T07:52:46.386Z,75.66
2022-10-19T07:53:46.388Z,75.66
2022-10-19T07:54:46.357Z,76.04
2022-10-19T07:55:46.407Z,75.80
2022-10-19T07:56:46.354Z,75.20
2022-10-19T07:57:47.129Z,74.95
2022-10-19T07:58:46.313Z,75.05
2022-10-19T07:59:46.337Z,74.95
2022-10-19T08:00:46.290Z,74.88
2022-10-19T08:01:46.495Z,74.71
2022-10-19T08:03:00.116Z,74.83
2022-10-19T08:05:06.147Z,74.23
2022-10-19T08:05:47.197Z,74.46
2022-10-19T08:06:46.276Z,74.48
2022-10-19T08:07:46.230Z,74.15
2022-10-19T08:08:46.422Z,73.74
2022-10-19T08:09:54.336Z,74.06
2022-10-19T08:10:47.143Z,74.66
2022-10-19T08:11:46.249Z,73.79
2022-10-19T08:12:46.118Z,73.52
2022-10-19T08:13:46.159Z,73.62
2022-10-19T08:14:46.097Z,73.33
2022-10-19T08:15:46.196Z,73.24
2022-10-19T08:16:46.088Z,72.82
2022-10-19T08:17:46.157Z,72.65
2022-10-19T08:18:46.039Z,72.99
2022-10-19T08:19:46.066Z,72.76
2022-10-19T08:20:46.037Z,72.63
2022-10-19T08:21:46.079Z,72.32
2022-10-19T08:22:46.009Z,72.62
2022-10-19T08:23:45.996Z,72.89
2022-10-19T08:24:45.950Z,72.80
2022-10-19T08:25:47.099Z,72.77
2022-10-19T08:26:45.957Z,72.29
2022-10-19T08:27:46.123Z,72.67
2022-10-19T08:28:45.888Z,72.77
2022-10-19T08:29:45.939Z,72.62
2022-10-19T08:30:45.870Z,72.70
2022-10-19T08:31:45.949Z,72.23
2022-10-19T08:32:45.859Z,72.18
2022-10-19T08:33:45.868Z,72.51
2022-10-19T08:34:45.808Z,72.64
2022-10-19T08:35:45.879Z,72.88
2022-10-19T08:36:45.796Z,72.57
2022-10-19T08:37:46.784Z,72.96
2022-10-19T08:38:47.913Z,71.82
2022-10-19T08:40:08.725Z,71.81
2022-10-19T08:40:46.786Z,71.72
2022-10-19T08:41:46.515Z,72.02
2022-10-19T08:43:07.277Z,71.98
2022-10-19T08:44:10.140Z,72.21
2022-10-19T08:45:01.280Z,72.32
2022-10-19T08:45:47.029Z,72.21
2022-10-19T08:46:47.038Z,71.75
2022-10-19T08:47:48.075Z,72.34
2022-10-19T08:48:46.403Z,71.58
2022-10-19T08:49:48.172Z,71.35
2022-10-19T08:50:47.682Z,71.25
2022-10-19T08:51:49.045Z,71.49
2022-10-19T08:52:48.816Z,71.44
2022-10-19T08:53:48.036Z,70.91
2022-10-19T08:54:50.026Z,70.70
2022-10-19T08:55:50.506Z,70.65
2022-10-19T08:56:51.583Z,70.41
2022-10-19T08:57:55.946Z,70.09
2022-10-19T08:58:49.903Z,70.35
2022-10-19T08:59:47.405Z,70.43
2022-10-19T09:00:48.415Z,70.79
2022-10-19T09:01:50.661Z,70.94
2022-10-19T09:02:48.641Z,70.47
2022-10-19T09:03:55.834Z,70.35
2022-10-19T09:04:47.269Z,70.33
2022-10-19T09:05:47.335Z,69.40
2022-10-19T09:06:51.102Z,69.56
2022-10-19T09:07:47.482Z,69.73
2022-10-19T09:08:47.456Z,69.74
2022-10-19T09:10:45.876Z,69.78
2022-10-19T09:11:47.309Z,69.49
2022-10-19T09:12:46.282Z,69.72
2022-10-19T09:14:04.189Z,69.64
2022-10-19T09:14:46.271Z,68.11
2022-10-19T09:15:46.147Z,67.71
2022-10-19T09:16:45.261Z,68.29
2022-10-19T09:17:47.033Z,68.45
2022-10-19T09:18:46.310Z,68.95
2022-10-19T09:19:45.333Z,69.00
2022-10-19T09:20:45.188Z,68.15
2022-10-19T09:21:47.647Z,68.11
2022-10-19T09:22:45.161Z,68.25
2022-10-19T09:23:45.264Z,68.73
2022-10-19T09:24:45.155Z,68.56
2022-10-19T09:25:45.165Z,68.37
2022-10-19T09:26:45.205Z,68.51
2022-10-19T09:28:06.163Z,69.14
2022-10-19T09:28:45.081Z,69.43
2022-10-19T09:30:06.132Z,68.12
2022-10-19T09:30:45.045Z,67.27
2022-10-19T09:31:45.161Z,68.46
2022-10-19T09:32:45.029Z,67.36
2022-10-19T09:33:45.073Z,67.47
2022-10-19T09:34:44.994Z,67.51
2022-10-19T09:35:45.083Z,67.61
2022-10-19T09:36:51.991Z,67.58
2022-10-19T09:37:45.981Z,67.82
2022-10-19T09:38:45.004Z,67.14
2022-10-19T09:39:52.336Z,66.97
2022-10-19T09:40:45.911Z,67.38
2022-10-19T09:41:44.925Z,68.00
2022-10-19T09:42:44.891Z,67.34
2022-10-19T09:43:44.994Z,66.92
2022-10-19T09:44:44.862Z,66.89
2022-10-19T09:45:44.951Z,66.27
2022-10-19T09:47:44.886Z,66.51
2022-10-19T09:48:44.815Z,66.12
2022-10-19T09:49:44.978Z,65.94
2022-10-19T09:50:44.783Z,66.27
2022-10-19T09:51:44.792Z,66.16
2022-10-19T09:52:44.758Z,66.30
2022-10-19T09:53:44.805Z,66.69
2022-10-19T09:54:44.726Z,66.88
2022-10-19T09:55:44.796Z,66.28
2022-10-19T09:56:44.706Z,66.18
2022-10-19T09:57:44.739Z,67.12
2022-10-19T09:58:44.675Z,67.16
2022-10-19T09:59:46.795Z,66.31
2022-10-19T10:00:44.655Z,66.23
2022-10-19T10:01:44.898Z,66.68
2022-10-19T10:03:44.678Z,67.94
2022-10-19T10:04:44.602Z,66.23
2022-10-19T10:05:44.687Z,66.60
2022-10-19T10:06:44.555Z,65.58
2022-10-19T10:07:44.655Z,65.84
2022-10-19T10:08:44.578Z,65.48
2022-10-19T10:09:44.637Z,64.64
2022-10-19T10:10:44.505Z,64.89
2022-10-19T10:11:44.642Z,64.09
2022-10-19T10:12:44.486Z,64.08
2022-10-19T10:13:44.697Z,64.16
2022-10-19T10:14:44.456Z,64.00
2022-10-19T10:15:44.557Z,63.51
2022-10-19T10:16:44.427Z,63.52
2022-10-19T10:17:44.472Z,62.68
2022-10-19T10:18:44.406Z,63.17
2022-10-19T10:19:44.447Z,63.39
2022-10-19T10:20:44.377Z,63.49
2022-10-19T10:21:44.398Z,63.29
2022-10-19T10:22:44.346Z,62.73
2022-10-19T10:23:45.448Z,62.83
2022-10-19T10:24:44.325Z,62.33
2022-10-19T10:25:44.379Z,62.46
2022-10-19T10:26:44.300Z,62.87
2022-10-19T10:27:44.339Z,62.47
2022-10-19T10:28:44.268Z,62.85
2022-10-19T10:29:44.392Z,61.68
2022-10-19T10:30:44.240Z,61.74
2022-10-19T10:31:44.318Z,61.55
2022-10-19T10:32:47.235Z,61.21
2022-10-19T10:33:45.318Z,61.67
2022-10-19T10:34:54.884Z,61.65
2022-10-19T10:35:45.175Z,61.30
2022-10-19T10:36:45.219Z,60.88
2022-10-19T10:37:44.181Z,60.60
2022-10-19T10:38:44.246Z,61.23
2022-10-19T10:39:44.119Z,61.42
2022-10-19T10:40:45.087Z,61.15
2022-10-19T10:41:44.090Z,61.64
2022-10-19T10:42:44.210Z,62.85
2022-10-19T10:43:44.131Z,61.69
2022-10-19T10:44:45.081Z,61.43
2022-10-19T10:45:44.040Z,62.41
2022-10-19T10:46:44.065Z,63.02
2022-10-19T10:47:44.008Z,62.97
2022-10-19T10:48:44.112Z,62.96
2022-10-19T10:49:44.010Z,63.70
2022-10-19T10:50:43.993Z,63.23
2022-10-19T10:51:43.971Z,62.72
2022-10-19T10:52:44.080Z,62.55
2022-10-19T10:53:43.942Z,63.02
2022-10-19T10:54:44.120Z,62.88
2022-10-19T10:55:43.946Z,62.99
2022-10-19T10:56:43.946Z,63.01
2022-10-19T10:57:43.879Z,62.97
2022-10-19T10:58:43.949Z,62.25
2022-10-19T10:59:45.646Z,62.99
2022-10-19T11:00:43.861Z,63.14
2022-10-19T11:01:43.970Z,63.30
2022-10-19T11:02:43.874Z,63.49
2022-10-19T11:03:43.792Z,63.85
2022-10-19T11:04:46.369Z,64.12
2022-10-19T11:05:43.779Z,63.65
2022-10-19T11:06:45.892Z,64.12
2022-10-19T11:07:43.762Z,63.35
2022-10-19T11:08:43.863Z,63.31
2022-10-19T11:09:43.714Z,63.70
2022-10-19T11:10:43.730Z,63.40
2022-10-19T11:11:43.683Z,63.06
2022-10-19T11:12:43.741Z,62.76
2022-10-19T11:13:43.672Z,62.58
2022-10-19T11:14:43.761Z,62.61
2022-10-19T11:15:43.630Z,62.50
2022-10-19T11:16:43.755Z,62.10
2022-10-19T11:17:43.603Z,62.55
2022-10-19T11:18:45.672Z,64.30
2022-10-19T11:19:43.593Z,62.84
2022-10-19T11:20:43.593Z,62.35
2022-10-19T11:21:43.543Z,61.83
2022-10-19T11:22:43.604Z,61.87
2022-10-19T11:23:43.523Z,61.84
2022-10-19T11:24:46.382Z,62.23
2022-10-19T11:25:44.513Z,62.31
2022-10-19T11:26:43.533Z,62.11
2022-10-19T11:27:43.455Z,62.41
2022-10-19T11:28:43.634Z,62.92
2022-10-19T11:29:43.442Z,62.93
2022-10-19T11:30:45.334Z,62.97
2022-10-19T11:31:43.438Z,62.94
2022-10-19T11:33:04.465Z,62.95
2022-10-19T11:34:43.387Z,62.72
2022-10-19T11:35:43.354Z,62.08
2022-10-19T11:36:43.404Z,62.38
2022-10-19T11:37:49.713Z,62.21
2022-10-19T11:38:44.325Z,61.38
2022-10-19T11:39:43.324Z,61.80
2022-10-19T11:40:54.251Z,61.97
2022-10-19T11:41:44.278Z,61.51
2022-10-19T11:42:43.303Z,60.82
2022-10-19T11:43:43.383Z,60.42
2022-10-19T11:44:43.235Z,62.79
2022-10-19T11:45:43.374Z,61.49
2022-10-19T11:46:43.219Z,61.82
2022-10-19T11:47:44.325Z,59.35
2022-10-19T11:48:43.951Z,58.76
2022-10-19T11:49:43.243Z,58.35
2022-10-19T11:50:46.658Z,58.41
2022-10-19T11:51:44.155Z,58.07
2022-10-19T11:52:43.236Z,58.07
2022-10-19T11:53:43.126Z,58.54
2022-10-19T11:54:43.126Z,58.93
2022-10-19T11:55:43.128Z,57.69
2022-10-19T11:57:01.537Z,57.60
2022-10-19T11:57:44.078Z,59.22
2022-10-19T11:58:43.171Z,58.84
2022-10-19T11:59:43.048Z,58.64
2022-10-19T12:00:43.068Z,58.30
2022-10-19T12:01:43.100Z,57.72
2022-10-19T12:02:43.079Z,58.15
2022-10-19T12:03:42.987Z,58.49
2022-10-19T12:04:45.159Z,58.24
2022-10-19T12:05:42.960Z,57.25
2022-10-19T12:06:43.080Z,57.45
2022-10-19T12:07:42.958Z,58.49
2022-10-19T12:08:43.074Z,59.21
2022-10-19T12:09:42.909Z,59.18
2022-10-19T12:10:42.950Z,58.79
2022-10-19T12:11:42.879Z,58.97
2022-10-19T12:12:42.950Z,58.55
2022-10-19T12:13:42.887Z,57.17
2022-10-19T12:14:42.939Z,57.18
2022-10-19T12:15:42.848Z,57.67
2022-10-19T12:17:52.307Z,56.21
2022-10-19T12:18:52.158Z,56.20
2022-10-19T12:19:52.240Z,56.68
2022-10-19T12:20:52.107Z,56.39
2022-10-19T12:21:53.158Z,54.19
2022-10-19T12:22:52.079Z,53.88
2022-10-19T12:23:53.168Z,53.01
2022-10-19T12:24:52.096Z,53.12
2022-10-19T12:25:52.057Z,52.78
2022-10-19T12:26:52.030Z,52.87
2022-10-19T12:27:52.071Z,53.05
2022-10-19T12:28:52.000Z,52.29
2022-10-19T12:29:52.087Z,52.70
2022-10-19T12:30:52.000Z,51.80
2022-10-19T12:31:52.091Z,52.34
2022-10-19T12:32:54.222Z,52.42
2022-10-19T12:33:52.020Z,52.07
2022-10-19T12:34:51.920Z,52.40
2022-10-19T12:35:52.950Z,53.07
2022-10-19T12:36:51.913Z,52.59
2022-10-19T12:37:51.941Z,53.37
2022-10-19T12:38:59.695Z,52.88
2022-10-19T12:39:52.880Z,52.95
2022-10-19T12:40:51.861Z,53.34
2022-10-19T12:41:51.942Z,53.19
2022-10-19T12:42:52.013Z,53.62
2022-10-19T12:43:51.859Z,54.13
2022-10-19T12:44:53.854Z,53.72
2022-10-19T12:45:52.182Z,53.72
2022-10-19T12:46:53.784Z,53.69
2022-10-19T12:47:52.170Z,53.75
2022-10-19T12:48:52.014Z,54.32
2022-10-19T12:49:51.940Z,54.58
2022-10-19T12:50:53.002Z,54.70
2022-10-19T12:51:52.171Z,53.27
2022-10-19T12:52:52.044Z,53.29
2022-10-19T12:53:51.923Z,53.31
2022-10-19T12:54:52.023Z,52.78
2022-10-19T12:55:52.164Z,52.16
2022-10-19T12:56:51.793Z,52.24
2022-10-19T12:57:51.724Z,52.15
2022-10-19T12:58:52.008Z,52.58
2022-10-19T12:59:51.604Z,52.51
2022-10-19T13:00:53.124Z,52.61